Time;durP1;ratioP1;P1;durP2;ratioP2;P2;SDS_P1;SDS_P2;PMS_P1;PMS_P2;Temp;Humidity;BMP_temperature;BMP_pressure;BME280_temperature;BME280_humidity;BME280_pressure;Samples;Min_cycle;Max_cycle;Signal;HPM_P1;HPM_P2
2024/02/04 00:00:28;;;;;;;0.60;0.60;;;;;;;6.61;89.33;97932.53;29396;201;63005;-54
2024/02/04 00:01:02;;;;;;;0.60;0.60;;;;;;;6.58;89.53;97935.72;29396;218;63009;-54
2024/02/04 00:01:33;;;;;;;0.60;0.60;;;;;;;6.55;89.50;97928.13;29396;272;63004;-54
2024/02/04 00:02:07;;;;;;;0.57;0.57;;;;;;;6.54;89.95;97934.56;29395;254;64009;-54
2024/02/04 00:02:39;;;;;;;0.60;0.60;;;;;;;6.53;90.20;97927.53;29396;252;63009;-54
2024/02/04 00:03:11;;;;;;;0.60;0.60;;;;;;;6.53;90.26;97921.34;29396;252;63009;-54
2024/02/04 00:03:46;;;;;;;0.57;0.57;;;;;;;6.52;90.38;97925.91;29396;196;63004;-54
2024/02/04 00:04:17;;;;;;;0.60;0.60;;;;;;;6.52;90.56;97925.91;29396;243;63008;-54
2024/02/04 00:04:48;;;;;;;0.60;0.60;;;;;;;6.51;90.44;97918.06;29396;222;63005;-54
2024/02/04 00:05:20;;;;;;;0.60;0.60;;;;;;;6.50;90.90;97919.94;29396;219;63009;-54
2024/02/04 00:05:52;;;;;;;0.50;0.50;;;;;;;6.48;90.75;97924.75;29396;223;63005;-54
2024/02/04 00:06:23;;;;;;;0.60;0.60;;;;;;;6.51;90.82;97915.38;29396;231;63009;-54
2024/02/04 00:06:54;;;;;;;0.50;0.50;;;;;;;6.51;90.61;97913.50;29396;385;63010;-55
2024/02/04 00:07:25;;;;;;;0.60;0.60;;;;;;;6.51;90.60;97918.88;29395;214;64009;-54
2024/02/04 00:08:00;;;;;;;0.60;0.60;;;;;;;6.54;90.47;97912.19;29396;220;63005;-54
2024/02/04 00:08:31;;;;;;;0.60;0.60;;;;;;;6.52;90.40;97925.91;29396;211;63009;-54
2024/02/04 00:09:04;;;;;;;0.52;0.52;;;;;;;6.56;90.43;97918.97;29396;208;63010;-54
2024/02/04 00:09:35;;;;;;;0.50;0.50;;;;;;;6.55;90.09;97914.63;29396;221;63009;-54
2024/02/04 00:10:07;;;;;;;0.60;0.60;;;;;;;6.53;90.20;97916.75;29396;279;63004;-54
2024/02/04 00:10:39;;;;;;;0.50;0.50;;;;;;;6.56;90.42;97918.16;29396;207;63017;-55
2024/02/04 00:11:11;;;;;;;0.50;0.50;;;;;;;6.56;90.48;97918.97;29395;238;64004;-55
2024/02/04 00:11:43;;;;;;;0.50;0.50;;;;;;;6.56;90.50;97905.50;29396;256;63020;-55
2024/02/04 00:12:14;;;;;;;0.60;0.60;;;;;;;6.64;89.90;97918.56;29396;220;63004;-55
2024/02/04 00:12:45;;;;;;;0.60;0.60;;;;;;;6.63;89.64;97910.72;29395;212;64009;-55
2024/02/04 00:13:20;;;;;;;0.50;0.50;;;;;;;6.63;89.84;97910.72;29396;228;63005;-55
2024/02/04 00:13:51;;;;;;;0.60;0.60;;;;;;;6.63;89.98;97906.13;29396;252;63018;-54
2024/02/04 00:14:23;;;;;;;0.60;0.60;;;;;;;6.63;89.92;97906.13;29396;236;63013;-66
2024/02/04 00:14:54;;;;;;;0.55;0.55;;;;;;;6.61;90.03;97905.56;29396;230;63009;-54
2024/02/04 00:15:25;;;;;;;0.60;0.60;;;;;;;6.57;89.94;97907.13;29396;197;63012;-54
2024/02/04 00:15:58;;;;;;;0.57;0.57;;;;;;;6.59;89.77;97890.69;29396;197;63009;-54
2024/02/04 00:16:29;;;;;;;0.50;0.50;;;;;;;6.60;89.81;97895.81;29396;240;63005;-54
2024/02/04 00:17:01;;;;;;;0.60;0.60;;;;;;;6.57;90.43;97901.75;29396;252;63016;-54
2024/02/04 00:17:33;;;;;;;0.50;0.50;;;;;;;6.57;90.15;97895.53;29396;272;63004;-55
2024/02/04 00:18:06;;;;;;;0.60;0.60;;;;;;;6.55;90.14;97898.47;29395;208;64009;-54
2024/02/04 00:18:37;;;;;;;0.52;0.52;;;;;;;6.53;90.12;97888.97;29396;234;63004;-55
2024/02/04 00:19:08;;;;;;;8.38;7.87;;;;;;;6.50;90.61;97890.28;29396;320;63008;-54
2024/02/04 00:19:39;;;;;;;0.60;0.60;;;;;;;6.52;90.46;97887.34;29396;222;63004;-54
2024/02/04 00:20:11;;;;;;;0.52;0.52;;;;;;;6.50;90.46;97890.28;29396;269;63009;-54
2024/02/04 00:20:42;;;;;;;0.50;0.50;;;;;;;6.56;90.25;97892.00;29396;256;63005;-55
2024/02/04 00:21:14;;;;;;;0.60;0.60;;;;;;;6.59;89.92;97887.97;29396;249;63017;-55
2024/02/04 00:21:45;;;;;;;0.57;0.57;;;;;;;6.61;89.46;97886.69;29396;268;63012;-54
2024/02/04 00:22:18;;;;;;;0.50;0.50;;;;;;;6.62;89.54;97888.31;29396;231;63009;-54
2024/02/04 00:22:50;;;;;;;0.60;0.60;;;;;;;6.60;89.58;97885.03;29396;223;63005;-55
2024/02/04 00:23:21;;;;;;;0.60;0.60;;;;;;;6.58;89.76;97875.59;29395;233;64009;-54
2024/02/04 00:23:52;;;;;;;0.60;0.60;;;;;;;6.54;89.86;97879.84;29396;202;63005;-54
2024/02/04 00:24:24;;;;;;;0.60;0.60;;;;;;;6.51;90.10;97873.03;29396;196;63009;-57
2024/02/04 00:25:01;;;;;;;0.60;0.60;;;;;;;6.56;89.75;97872.31;29396;203;63004;-56
2024/02/04 00:25:32;;;;;;;0.60;0.60;;;;;;;6.58;89.66;97868.31;29396;199;63009;-54
2024/02/04 00:26:06;;;;;;;0.60;0.60;;;;;;;6.58;89.59;97862.94;29396;199;63004;-54
2024/02/04 00:26:37;;;;;;;0.50;0.50;;;;;;;6.57;89.74;97863.16;29396;199;63008;-66
2024/02/04 00:27:08;;;;;;;0.60;0.60;;;;;;;6.55;89.85;97860.72;29396;214;63004;-54
2024/02/04 00:27:39;;;;;;;0.60;0.60;;;;;;;6.54;90.07;97855.56;29396;215;63009;-54
2024/02/04 00:28:11;;;;;;;0.60;0.60;;;;;;;6.51;90.35;97858.75;29397;247;63005;-55
2024/02/04 00:28:46;;;;;;;0.60;0.60;;;;;;;6.49;90.39;97850.06;29396;254;64009;-55
2024/02/04 00:29:17;;;;;;;0.60;0.60;;;;;;;6.45;90.57;97849.75;29397;202;63005;-54
2024/02/04 00:29:48;;;;;;;0.52;0.52;;;;;;;6.43;90.94;97857.25;29397;240;63009;-54
2024/02/04 00:30:20;;;;;;;0.60;0.60;;;;;;;6.42;90.96;97849.41;29397;223;63005;-54
2024/02/04 00:30:55;;;;;;;0.50;0.50;;;;;;;6.41;90.88;97850.47;29397;224;63009;-55
2024/02/04 00:31:27;;;;;;;0.60;0.60;;;;;;;6.38;91.09;97852.59;29397;328;63004;-54
2024/02/04 00:31:58;;;;;;;0.60;0.60;;;;;;;6.37;91.45;97842.03;29397;211;63009;-67
2024/02/04 00:32:29;;;;;;;0.60;0.60;;;;;;;6.36;91.09;97851.19;29397;211;63004;-55
2024/02/04 00:33:03;;;;;;;0.60;0.60;;;;;;;6.40;91.20;97846.94;29397;243;63009;-55
2024/02/04 00:33:35;;;;;;;0.60;0.60;;;;;;;6.47;90.64;97852.19;29397;199;63009;-56
2024/02/04 00:34:06;;;;;;;0.50;0.50;;;;;;;6.52;90.17;97842.31;29396;206;64008;-54
2024/02/04 00:34:37;;;;;;;0.60;0.60;;;;;;;6.49;90.11;97850.91;29397;196;63008;-54
2024/02/04 00:35:08;;;;;;;0.60;0.60;;;;;;;6.43;90.63;97849.16;29397;197;63015;-54
2024/02/04 00:35:40;;;;;;;0.52;0.52;;;;;;;6.41;90.67;97848.59;29397;210;63005;-55
2024/02/04 00:36:11;;;;;;;0.60;0.60;;;;;;;6.45;90.57;97844.34;29397;202;63009;-54
2024/02/04 00:36:44;;;;;;;0.60;0.60;;;;;;;6.46;90.48;97848.69;29397;206;63005;-54
2024/02/04 00:37:15;;;;;;;0.60;0.60;;;;;;;6.44;90.24;97849.97;29397;212;63009;-66
2024/02/04 00:37:47;;;;;;;0.60;0.60;;;;;;;6.44;90.54;97853.50;29397;199;63009;-55
2024/02/04 00:38:19;;;;;;;0.60;0.60;;;;;;;6.46;90.52;97846.00;29397;218;63009;-54
2024/02/04 00:38:50;;;;;;;0.60;0.60;;;;;;;6.47;90.12;97842.22;29397;233;63004;-55
2024/02/04 00:39:21;;;;;;;0.60;0.60;;;;;;;6.49;90.04;97856.28;29396;255;64009;-55
2024/02/04 00:39:55;;;;;;;0.60;0.60;;;;;;;6.49;89.94;97842.81;29397;210;63018;-54
2024/02/04 00:40:26;;;;;;;0.60;0.60;;;;;;;6.48;90.07;97851.13;29397;216;63009;-55
2024/02/04 00:40:58;;;;;;;0.60;0.60;;;;;;;6.47;90.10;97846.81;29396;196;63004;-67
2024/02/04 00:41:29;;;;;;;0.60;0.60;;;;;;;6.44;90.47;97858.87;29396;203;63008;-54
2024/02/04 00:42:01;;;;;;;0.60;0.60;;;;;;;6.41;90.61;97848.59;29396;215;63005;-54
2024/02/04 00:42:32;;;;;;;0.60;0.60;;;;;;;6.43;90.80;97846.47;29396;214;63009;-54
2024/02/04 00:43:03;;;;;;;0.60;0.60;;;;;;;6.42;90.33;97839.44;29396;220;63009;-54
2024/02/04 00:43:35;;;;;;;0.57;0.57;;;;;;;6.41;90.52;97845.91;29396;244;63009;-57
2024/02/04 00:44:06;;;;;;;0.60;0.60;;;;;;;6.51;90.05;97840.69;29396;244;63005;-55
2024/02/04 00:44:37;;;;;;;0.60;0.60;;;;;;;6.54;89.83;97852.88;29395;262;64009;-55
2024/02/04 00:45:12;;;;;;;0.60;0.60;;;;;;;6.54;89.97;97844.78;29396;271;63005;-54
2024/02/04 00:45:44;;;;;;;0.50;0.50;;;;;;;6.55;89.73;97836.44;29396;206;63009;-55
2024/02/04 00:46:15;;;;;;;0.50;0.50;;;;;;;6.54;89.57;97842.91;29396;202;63004;-55
2024/02/04 00:46:49;;;;;;;0.60;0.60;;;;;;;6.50;89.74;97849.03;29396;246;63009;-54
2024/02/04 00:47:21;;;;;;;0.60;0.60;;;;;;;6.45;89.87;97844.34;29395;253;64004;-54
2024/02/04 00:47:53;;;;;;;0.60;0.60;;;;;;;6.51;89.88;97847.97;29396;200;63009;-56
2024/02/04 00:48:24;;;;;;;0.60;0.60;;;;;;;6.48;89.88;97860.03;29396;202;63004;-54
2024/02/04 00:48:55;;;;;;;0.50;0.50;;;;;;;6.45;89.98;97865.91;29396;286;63008;-54
2024/02/04 00:49:26;;;;;;;0.57;0.57;;;;;;;6.40;90.20;97857.72;29396;216;63005;-54
2024/02/04 00:49:58;;;;;;;0.60;0.60;;;;;;;6.36;90.36;97856.59;29395;285;64009;-55
2024/02/04 00:50:29;;;;;;;0.50;0.50;;;;;;;6.39;90.68;97858.78;29396;298;63005;-55
2024/02/04 00:51:01;;;;;;;0.60;0.60;;;;;;;6.36;90.73;97861.97;29396;259;63009;-54
2024/02/04 00:51:32;;;;;;;0.50;0.50;;;;;;;6.34;90.76;97859.50;29396;207;63005;-67
2024/02/04 00:52:05;;;;;;;0.50;0.50;;;;;;;6.31;90.87;97860.00;29395;217;64009;-54
2024/02/04 00:52:36;;;;;;;0.60;0.60;;;;;;;6.32;91.01;97852.72;29396;214;63016;-55
2024/02/04 00:53:07;;;;;;;0.60;0.60;;;;;;;6.38;90.87;97857.16;29396;202;63009;-53
2024/02/04 00:53:39;;;;;;;0.50;0.50;;;;;;;6.39;90.76;97858.78;29396;315;63004;-56
2024/02/04 00:54:10;;;;;;;0.60;0.60;;;;;;;6.39;90.53;97858.78;29396;202;63009;-54
2024/02/04 00:54:41;;;;;;;0.60;0.60;;;;;;;6.37;90.50;97866.31;29396;252;63004;-54
2024/02/04 00:55:13;;;;;;;0.60;0.60;;;;;;;6.35;90.88;97854.94;29396;202;63009;-55
2024/02/04 00:55:45;;;;;;;0.60;0.60;;;;;;;6.37;90.88;97858.22;29396;226;63004;-55
2024/02/04 00:56:16;;;;;;;0.50;0.50;;;;;;;6.36;90.86;97852.00;29396;245;63019;-54
2024/02/04 00:56:47;;;;;;;0.60;0.60;;;;;;;6.34;90.89;97847.91;29395;246;64004;-54
2024/02/04 00:57:19;;;;;;;0.60;0.60;;;;;;;6.35;90.78;97850.38;29395;367;64009;-54
2024/02/04 00:57:50;;;;;;;0.50;0.50;;;;;;;6.35;90.89;97854.94;29396;214;63005;-54
2024/02/04 00:58:21;;;;;;;0.50;0.50;;;;;;;6.40;91.11;97863.12;29396;202;63009;-57
2024/02/04 00:58:53;;;;;;;0.60;0.60;;;;;;;6.43;90.56;97864.53;29396;198;63005;-54
2024/02/04 00:59:24;;;;;;;0.60;0.60;;;;;;;6.39;90.75;97865.00;29396;202;63014;-54
2024/02/04 00:59:55;;;;;;;0.60;0.60;;;;;;;6.37;90.60;97869.00;29396;206;63005;-54
2024/02/04 01:00:27;;;;;;;0.60;0.60;;;;;;;6.33;90.65;97874.06;29396;223;63009;-55
2024/02/04 01:00:59;;;;;;;0.60;0.60;;;;;;;6.33;91.19;97867.84;29396;247;63005;-65
2024/02/04 01:01:30;;;;;;;0.55;0.55;;;;;;;6.33;90.98;97873.25;29396;248;63026;-54
2024/02/04 01:02:01;;;;;;;0.50;0.50;;;;;;;6.33;90.99;97870.53;29396;227;63004;-56
2024/02/04 01:02:33;;;;;;;0.60;0.60;;;;;;;6.31;90.79;97869.97;29395;204;64009;-53
2024/02/04 01:03:05;;;;;;;0.60;0.60;;;;;;;6.28;91.15;97868.56;29396;268;63004;-54
2024/02/04 01:03:38;;;;;;;0.60;0.60;;;;;;;6.27;91.54;97866.09;29396;203;63016;-54
2024/02/04 01:04:09;;;;;;;0.50;0.50;;;;;;;6.25;91.67;97871.75;29396;256;63004;-56
2024/02/04 01:04:40;;;;;;;0.57;0.57;;;;;;;6.26;91.59;97867.16;29396;211;63020;-54
2024/02/04 01:05:12;;;;;;;0.60;0.60;;;;;;;6.25;91.52;97866.34;29396;198;63005;-55
2024/02/04 01:05:43;;;;;;;0.50;0.50;;;;;;;6.22;91.78;97866.03;29396;379;63009;-53
2024/02/04 01:06:15;;;;;;;0.60;0.60;;;;;;;6.24;91.74;97861.19;29396;224;63005;-55
2024/02/04 01:06:46;;;;;;;0.60;0.60;;;;;;;6.26;91.69;97864.47;29396;207;63009;-54
2024/02/04 01:07:17;;;;;;;0.50;0.50;;;;;;;6.23;91.34;97862.28;29396;202;63005;-55
2024/02/04 01:07:49;;;;;;;0.60;0.60;;;;;;;6.21;91.68;97859.84;29395;248;64009;-54
2024/02/04 01:08:21;;;;;;;0.60;0.60;;;;;;;6.20;91.84;97860.88;29396;218;63005;-54
2024/02/04 01:08:52;;;;;;;0.50;0.50;;;;;;;6.21;91.86;97865.22;29396;198;63009;-54
2024/02/04 01:09:24;;;;;;;0.60;0.60;;;;;;;6.22;91.49;97860.66;29396;231;63004;-54
2024/02/04 01:11:06;;;;;;;0.58;0.58;;;;;;;6.19;91.93;97867.34;88174;210;64004;-54
2024/02/04 01:11:37;;;;;;;0.60;0.60;;;;;;;6.21;91.98;97869.78;29394;202;64009;-54
2024/02/04 01:12:10;;;;;;;0.60;0.60;;;;;;;6.19;92.17;97869.22;29395;211;63004;-55
2024/02/04 01:12:41;;;;;;;0.50;0.50;;;;;;;6.17;91.95;97868.63;29395;210;63009;-54
2024/02/04 01:13:14;;;;;;;0.60;0.60;;;;;;;6.17;92.38;97874.03;29394;259;64009;-54
2024/02/04 01:13:46;;;;;;;0.60;0.60;;;;;;;6.16;92.34;97872.38;29395;218;63024;-54
2024/02/04 01:14:17;;;;;;;0.60;0.60;;;;;;;6.14;92.60;97869.13;29395;265;63004;-56
2024/02/04 01:14:48;;;;;;;0.50;0.50;;;;;;;6.12;92.32;97873.94;29395;206;63023;-53
2024/02/04 01:15:20;;;;;;;0.60;0.60;;;;;;;6.11;92.49;97877.69;29394;284;64004;-55
2024/02/04 01:15:51;;;;;;;0.60;0.60;;;;;;;6.14;92.52;97879.91;29395;359;63009;-54
2024/02/04 01:16:22;;;;;;;0.60;0.60;;;;;;;6.15;92.48;97881.53;29395;214;63005;-55
2024/02/04 01:16:54;;;;;;;0.50;0.50;;;;;;;6.18;92.47;97878.34;29395;264;63009;-58
2024/02/04 01:17:26;;;;;;;0.50;0.50;;;;;;;6.28;91.52;97873.13;29395;225;63005;-54
2024/02/04 01:17:58;;;;;;;0.50;0.50;;;;;;;6.26;91.46;97867.16;29395;203;63017;-55
2024/02/04 01:18:31;;;;;;;0.60;0.60;;;;;;;6.24;91.79;97869.28;29394;203;64001;-55
2024/02/04 01:19:02;;;;;;;0.60;0.60;;;;;;;6.21;91.98;97869.78;29395;207;63009;-55
2024/02/04 01:19:34;;;;;;;0.60;0.60;;;;;;;6.19;91.90;97871.91;29395;214;63005;-54
2024/02/04 01:20:06;;;;;;;0.60;0.60;;;;;;;6.17;92.22;97871.34;29395;202;63009;-55
2024/02/04 01:20:37;;;;;;;0.60;0.60;;;;;;;6.18;92.11;97860.31;29395;197;63004;-57
2024/02/04 01:21:09;;;;;;;0.60;0.60;;;;;;;6.21;92.12;97864.41;29395;315;63009;-57
2024/02/04 01:21:40;;;;;;;0.60;0.60;;;;;;;6.22;91.76;97866.87;29395;232;63004;-55
2024/02/04 01:22:11;;;;;;;0.60;0.60;;;;;;;6.22;91.65;97861.47;29395;201;63016;-55
2024/02/04 01:22:43;;;;;;;0.57;0.57;;;;;;;6.21;91.61;97864.41;29395;264;63004;-55
2024/02/04 01:23:17;;;;;;;0.60;0.60;;;;;;;6.19;91.63;97858.44;29395;233;63009;-55
2024/02/04 01:23:48;;;;;;;0.60;0.60;;;;;;;6.17;91.94;97860.56;29394;215;64009;-57
2024/02/04 01:24:20;;;;;;;0.57;0.57;;;;;;;6.20;91.70;97858.19;29395;253;63009;-57
2024/02/04 01:24:51;;;;;;;0.60;0.60;;;;;;;6.24;91.25;97863.91;29395;215;63005;-55
2024/02/04 01:25:22;;;;;;;0.60;0.60;;;;;;;6.27;91.26;97852.63;29395;259;63013;-55
2024/02/04 01:25:53;;;;;;;0.50;0.50;;;;;;;6.28;90.82;97852.41;29395;202;63005;-55
2024/02/04 01:26:24;;;;;;;0.50;0.50;;;;;;;6.27;91.25;97858.84;29395;222;63023;-54
2024/02/04 01:26:56;;;;;;;0.60;0.60;;;;;;;6.27;91.07;97849.94;29395;340;63004;-56
2024/02/04 01:27:27;;;;;;;0.50;0.50;;;;;;;6.26;91.08;97851.81;29395;223;63009;-55
2024/02/04 01:27:58;;;;;;;0.60;0.60;;;;;;;6.23;90.88;97846.13;29395;202;63004;-55
2024/02/04 01:28:33;;;;;;;0.60;0.60;;;;;;;6.20;91.30;97846.59;29395;202;63009;-55
2024/02/04 01:29:04;;;;;;;0.60;0.60;;;;;;;6.20;91.50;97847.41;29394;234;64008;-54
2024/02/04 01:29:35;;;;;;;0.60;0.60;;;;;;;6.19;91.78;97844.97;29395;203;63008;-53
2024/02/04 01:30:08;;;;;;;0.60;0.60;;;;;;;6.27;91.23;97842.66;29395;211;63004;-57
2024/02/04 01:30:39;;;;;;;0.60;0.60;;;;;;;6.32;90.54;97840.06;29395;214;63009;-54
2024/02/04 01:31:10;;;;;;;0.57;0.57;;;;;;;6.32;90.29;97839.25;29395;212;63005;-55
2024/02/04 01:31:42;;;;;;;0.60;0.60;;;;;;;6.33;90.52;97839.00;29395;222;63009;-55
2024/02/04 01:32:14;;;;;;;0.60;0.60;;;;;;;6.31;90.30;97843.00;29395;360;63005;-56
2024/02/04 01:32:46;;;;;;;0.60;0.60;;;;;;;6.30;90.64;97846.75;29395;269;63009;-55
2024/02/04 01:33:18;;;;;;;0.60;0.60;;;;;;;6.26;90.54;97853.69;29395;227;63005;-55
2024/02/04 01:33:49;;;;;;;0.60;0.60;;;;;;;6.22;90.81;97847.19;29395;244;63009;-55
2024/02/04 01:34:21;;;;;;;0.50;0.50;;;;;;;6.21;91.41;97859.84;29394;237;64009;-56
2024/02/04 01:34:53;;;;;;;0.50;0.50;;;;;;;6.33;90.48;97848.97;29395;229;63009;-57
2024/02/04 01:35:24;;;;;;;0.60;0.60;;;;;;;6.44;89.69;97848.09;29395;203;63004;-57
2024/02/04 01:35:56;;;;;;;0.60;0.60;;;;;;;6.45;89.46;97851.63;29395;220;63009;-55
2024/02/04 01:36:27;;;;;;;0.60;0.60;;;;;;;6.38;89.41;97855.28;29395;202;63004;-55
2024/02/04 01:36:58;;;;;;;0.57;0.57;;;;;;;6.32;89.78;97855.44;29395;231;63008;-53
2024/02/04 01:37:30;;;;;;;0.60;0.60;;;;;;;6.28;90.09;97856.97;29395;197;63005;-67
2024/02/04 01:38:01;;;;;;;0.60;0.60;;;;;;;6.23;90.65;97856.91;29395;273;63009;-54
2024/02/04 01:38:32;;;;;;;0.60;0.60;;;;;;;6.19;90.68;97853.03;29395;326;63009;-54
2024/02/04 01:39:04;;;;;;;0.60;0.60;;;;;;;6.17;91.06;97853.28;29395;207;63009;-56
2024/02/04 01:39:36;;;;;;;0.80;0.80;;;;;;;6.30;90.49;97857.53;29394;202;64009;-57
2024/02/04 01:40:09;;;;;;;0.60;0.60;;;;;;;6.30;90.48;97846.75;29394;221;64009;-56
2024/02/04 01:40:43;;;;;;;0.60;0.60;;;;;;;6.29;90.46;97845.94;29394;373;64005;-56
2024/02/04 01:41:15;;;;;;;0.50;0.50;;;;;;;6.30;90.11;97846.75;29395;315;63009;-55
2024/02/04 01:41:46;;;;;;;0.60;0.60;;;;;;;6.27;90.20;97847.25;29395;210;63004;-55
2024/02/04 01:42:17;;;;;;;0.60;0.60;;;;;;;6.27;90.31;97852.63;29395;198;63014;-54
2024/02/04 01:42:48;;;;;;;0.60;0.60;;;;;;;6.24;90.48;97847.72;29395;212;63004;-54
2024/02/04 01:43:21;;;;;;;0.50;0.50;;;;;;;6.22;90.92;97849.88;29395;204;63009;-62
2024/02/04 01:43:52;;;;;;;0.60;0.60;;;;;;;6.19;90.76;97853.88;29395;259;63004;-55
2024/02/04 01:44:24;;;;;;;0.60;0.60;;;;;;;6.16;91.12;97851.66;29395;215;63008;-55
2024/02/04 01:44:55;;;;;;;0.50;0.50;;;;;;;6.13;91.37;97845.91;29394;230;64009;-55
2024/02/04 01:45:27;;;;;;;0.60;0.60;;;;;;;6.12;91.51;97855.88;29395;286;63009;-55
2024/02/04 01:45:58;;;;;;;0.60;0.60;;;;;;;6.10;91.53;97851.78;29395;207;63005;-54
2024/02/04 01:46:30;;;;;;;0.60;0.60;;;;;;;6.10;91.90;97857.19;29395;208;63009;-56
2024/02/04 01:47:01;;;;;;;0.50;0.50;;;;;;;6.11;92.09;97859.63;29395;211;63005;-55
2024/02/04 01:47:33;;;;;;;0.60;0.60;;;;;;;6.14;91.82;97858.34;29395;253;63009;-55
2024/02/04 01:48:05;;;;;;;0.60;0.60;;;;;;;6.14;91.63;97855.66;29395;214;63005;-55
2024/02/04 01:48:37;;;;;;;0.60;0.60;;;;;;;6.18;91.37;97851.41;29395;242;63009;-55
2024/02/04 01:49:09;;;;;;;0.60;0.60;;;;;;;6.17;90.97;97852.47;29395;233;63004;-65
2024/02/04 01:49:41;;;;;;;0.60;0.60;;;;;;;6.16;91.36;97856.22;29395;227;63009;-54
2024/02/04 01:50:13;;;;;;;0.60;0.60;;;;;;;6.13;91.23;97857.50;29394;211;64009;-54
2024/02/04 01:50:46;;;;;;;0.60;0.60;;;;;;;6.10;91.59;97859.87;29395;317;63009;-55
2024/02/04 01:51:19;;;;;;;0.60;0.60;;;;;;;6.17;91.54;97857.84;29395;232;63004;-58
2024/02/04 01:51:50;;;;;;;0.50;0.50;;;;;;;6.29;90.95;97861.31;29395;225;63018;-55
2024/02/04 01:52:22;;;;;;;0.50;0.50;;;;;;;6.31;90.33;97857.31;29395;219;63010;-55
2024/02/04 01:52:54;;;;;;;0.60;0.60;;;;;;;6.31;90.54;97861.88;29395;221;63014;-56
2024/02/04 01:53:28;;;;;;;0.60;0.60;;;;;;;6.26;90.40;97867.16;29395;209;63005;-54
2024/02/04 01:53:59;;;;;;;0.60;0.60;;;;;;;6.23;90.65;97867.69;29395;249;63009;-55
2024/02/04 01:54:32;;;;;;;0.50;0.50;;;;;;;6.21;90.93;97861.72;29395;207;63005;-54
2024/02/04 01:55:05;;;;;;;0.60;0.60;;;;;;;6.17;91.15;97852.47;29395;222;63009;-64
2024/02/04 01:55:38;;;;;;;0.60;0.60;;;;;;;6.16;91.38;97856.22;29394;393;64009;-54
2024/02/04 01:56:11;;;;;;;0.60;0.60;;;;;;;6.15;91.54;97863.50;29395;221;63022;-56
2024/02/04 01:56:43;;;;;;;0.50;0.50;;;;;;;6.17;91.38;97857.84;29395;306;63018;-54
2024/02/04 01:57:14;;;;;;;0.60;0.60;;;;;;;6.16;91.29;97861.59;29395;197;63009;-55
2024/02/04 01:57:49;;;;;;;0.60;0.60;;;;;;;6.15;91.73;97854.59;29395;271;63004;-54
2024/02/04 01:58:21;;;;;;;0.50;0.50;;;;;;;6.12;92.07;97855.88;29395;216;63009;-54
2024/02/04 01:58:53;;;;;;;0.50;0.50;;;;;;;6.09;92.85;97852.84;29395;239;63004;-54
2024/02/04 01:59:30;;;;;;;0.60;0.60;;;;;;;6.03;93.34;97860.81;29395;223;63008;-55
2024/02/04 02:00:04;;;;;;;0.50;0.50;;;;;;;6.04;93.01;97857.06;29395;279;63005;-55
2024/02/04 02:00:35;;;;;;;0.60;0.60;;;;;;;6.07;92.73;97852.28;29395;199;63005;-55
2024/02/04 02:01:07;;;;;;;0.55;0.55;;;;;;;6.09;92.21;97850.16;29394;226;64009;-55
2024/02/04 02:01:39;;;;;;;0.50;0.50;;;;;;;6.09;92.17;97853.66;29395;242;63015;-54
2024/02/04 02:02:10;;;;;;;0.50;0.50;;;;;;;6.10;92.06;97857.19;29395;341;63005;-54
2024/02/04 02:02:43;;;;;;;0.60;0.60;;;;;;;6.08;91.94;97854.72;29395;273;63009;-54
2024/02/04 02:03:15;;;;;;;0.50;0.50;;;;;;;6.11;92.01;97853.44;29395;325;63013;-56
2024/02/04 02:03:48;;;;;;;0.50;0.50;;;;;;;6.13;92.18;97856.69;29395;212;63009;-54
2024/02/04 02:04:21;;;;;;;0.60;0.60;;;;;;;6.13;92.12;97862.91;29395;199;63004;-55
2024/02/04 02:04:53;;;;;;;0.50;0.50;;;;;;;6.14;91.93;97861.03;29395;242;63013;-54
2024/02/04 02:05:26;;;;;;;0.60;0.60;;;;;;;6.15;92.00;97865.38;29394;246;64009;-56
2024/02/04 02:06:00;;;;;;;0.50;0.50;;;;;;;6.15;91.74;97868.06;29395;296;63009;-54
2024/02/04 02:06:32;;;;;;;0.60;0.60;;;;;;;6.16;91.80;97861.59;29395;215;63004;-55
2024/02/04 02:07:07;;;;;;;0.50;0.50;;;;;;;6.16;91.89;97861.59;29395;198;63008;-54
2024/02/04 02:07:40;;;;;;;0.50;0.50;;;;;;;6.15;91.81;97866.19;29395;219;63005;-54
2024/02/04 02:08:12;;;;;;;0.50;0.50;;;;;;;6.15;91.61;97855.41;29395;199;63024;-55
2024/02/04 02:08:46;;;;;;;0.50;0.50;;;;;;;6.15;91.66;97863.50;29395;262;63005;-55
2024/02/04 02:09:18;;;;;;;0.60;0.60;;;;;;;6.19;91.77;97861.13;29395;260;63009;-54
2024/02/04 02:09:49;;;;;;;0.60;0.60;;;;;;;6.18;91.58;97859.50;29395;241;63005;-54
2024/02/04 02:10:23;;;;;;;0.60;0.60;;;;;;;6.16;91.51;97854.34;29395;209;63009;-54
2024/02/04 02:11:05;;;;;;;0.50;0.50;;;;;;;6.13;91.67;97859.41;29394;229;64009;-55
2024/02/04 02:12:02;;;;;;;0.60;0.60;;;;;;;6.09;91.89;97856.34;29395;196;63009;-55
2024/02/04 02:13:07;;;;;;;0.50;0.50;;;;;;;6.08;92.08;97848.50;29395;347;63013;-55
2024/02/04 02:13:41;;;;;;;0.60;0.60;;;;;;;6.12;92.24;97846.97;29394;227;64013;-56
2024/02/04 02:14:23;;;;;;;0.60;0.60;;;;;;;6.14;92.02;97853.78;29394;216;64008;-56
2024/02/04 02:15:03;;;;;;;0.50;0.50;;;;;;;6.14;91.40;97847.56;29395;203;63022;-54
2024/02/04 02:15:42;;;;;;;0.60;0.60;;;;;;;6.13;91.63;97845.91;29417;197;63005;-54
2024/02/04 02:16:21;;;;;;;0.55;0.55;;;;;;;6.13;92.06;97845.91;29395;224;63010;-55
2024/02/04 02:16:58;;;;;;;0.60;0.60;;;;;;;6.16;91.70;97842.75;29395;295;63008;-54
2024/02/04 02:17:49;;;;;;;0.50;0.50;;;;;;;6.15;91.60;97838.41;29395;351;63009;-56
2024/02/04 02:18:40;;;;;;;0.60;0.60;;;;;;;6.14;91.76;97844.87;29417;198;63011;-55
2024/02/04 02:19:44;;;;;;;0.60;0.60;;;;;;;6.08;92.39;97843.13;29417;256;63018;-55
2024/02/04 02:20:30;;;;;;;0.60;0.60;;;;;;;6.10;92.03;97841.00;29394;280;64013;-54
2024/02/04 02:21:30;;;;;;;0.60;0.60;;;;;;;6.10;92.26;97846.41;29395;251;63004;-54
2024/02/04 02:22:29;;;;;;;0.50;0.50;;;;;;;6.05;92.28;97850.63;29395;252;63011;-54
2024/02/04 02:23:11;;;;;;;0.60;0.60;;;;;;;6.04;92.79;97838.22;29395;202;63009;-55
2024/02/04 02:24:10;;;;;;;0.60;0.60;;;;;;;6.04;92.28;97842.78;29395;284;63005;-55
2024/02/04 02:24:43;;;;;;;0.60;0.60;;;;;;;6.04;92.28;97840.91;29395;262;63009;-54
2024/02/04 02:25:14;;;;;;;0.60;0.60;;;;;;;5.99;92.97;97845.38;29395;209;63005;-54
2024/02/04 02:25:46;;;;;;;0.60;0.60;;;;;;;5.97;92.76;97851.00;29394;225;64013;-54
2024/02/04 02:26:18;;;;;;;0.60;0.60;;;;;;;5.96;92.79;97843.97;29395;197;63005;-55
2024/02/04 02:26:51;;;;;;;0.60;0.60;;;;;;;5.96;93.04;97843.97;29395;225;63009;-54
2024/02/04 02:27:22;;;;;;;0.60;0.60;;;;;;;5.97;92.84;97845.63;29395;202;63004;-55
2024/02/04 02:27:54;;;;;;;0.60;0.60;;;;;;;5.97;92.95;97853.69;29395;226;63009;-58
2024/02/04 02:28:26;;;;;;;0.52;0.52;;;;;;;6.04;93.06;97849.00;29395;203;63004;-56
2024/02/04 02:28:58;;;;;;;0.50;0.50;;;;;;;6.05;92.83;97847.94;29395;232;63004;-54
2024/02/04 02:29:29;;;;;;;0.60;0.60;;;;;;;6.03;92.39;97846.53;29395;219;63004;-55
2024/02/04 02:30:00;;;;;;;0.50;0.50;;;;;;;6.02;92.76;97861.06;29395;215;63008;-55
2024/02/04 02:30:31;;;;;;;0.55;0.55;;;;;;;6.00;92.40;97853.22;29395;266;63005;-55
2024/02/04 02:31:03;;;;;;;0.60;0.60;;;;;;;5.98;92.66;97858.03;29394;298;64014;-66
2024/02/04 02:31:37;;;;;;;0.60;0.60;;;;;;;5.98;92.67;97858.03;29395;218;63005;-55
2024/02/04 02:32:09;;;;;;;0.50;0.50;;;;;;;5.98;93.40;97854.53;29395;216;63009;-54
2024/02/04 02:32:41;;;;;;;0.60;0.60;;;;;;;5.94;93.70;97862.25;29395;240;63005;-54
2024/02/04 02:33:12;;;;;;;0.60;0.60;;;;;;;5.93;93.62;97857.09;29395;346;63024;-55
2024/02/04 02:33:44;;;;;;;0.60;0.60;;;;;;;5.91;93.94;97865.44;29395;288;63005;-54
2024/02/04 02:34:16;;;;;;;0.60;0.60;;;;;;;5.91;94.16;97860.03;29395;241;63009;-54
2024/02/04 02:34:48;;;;;;;0.60;0.60;;;;;;;5.90;94.04;97862.97;29395;221;63004;-55
2024/02/04 02:35:20;;;;;;;0.60;0.60;;;;;;;5.91;94.20;97865.44;29395;197;63015;-55
2024/02/04 02:35:57;;;;;;;0.60;0.60;;;;;;;5.96;93.49;97862.84;29395;241;63004;-55
2024/02/04 02:36:34;;;;;;;0.50;0.50;;;;;;;5.98;93.59;97862.59;29394;204;64013;-54
2024/02/04 02:37:41;;;;;;;0.50;0.50;;;;;;;5.96;93.07;97865.53;29395;211;63004;-54
2024/02/04 02:38:51;;;;;;;0.60;0.60;;;;;;;5.98;93.69;97860.72;29395;209;63009;-55
2024/02/04 02:39:27;;;;;;;0.60;0.60;;;;;;;6.00;93.29;97858.59;29395;212;63005;-55
2024/02/04 02:40:21;;;;;;;0.60;0.60;;;;;;;6.08;92.60;97860.13;29395;202;63012;-57
2024/02/04 02:40:58;;;;;;;0.50;0.50;;;;;;;6.09;92.49;97855.53;29395;268;63000;-54
2024/02/04 02:41:32;;;;;;;0.60;0.60;;;;;;;6.05;92.48;97853.31;29394;225;64013;-54
2024/02/04 02:42:05;;;;;;;0.60;0.60;;;;;;;6.01;92.74;97860.25;29395;211;63004;-55